ADDS METAR Data INFO
IDs: Format: Raw Decoded Include TAF

Data at: 1512 UTC 11 Dec 2017

KDKK 111453Z AUTO 04003KT 8SM -SN OVC024 M02/M07 A3003 RMK AO2 SLP177 P0000 60000 T10221067 51009
KDKK 111353Z AUTO 31004KT 9SM -SN OVC027 M02/M07 A3002 RMK AO2 SLP175 P0000 T10221067
KDKK 111253Z AUTO 31006KT 9SM -SN BKN026 OVC030 M02/M07 A3001 RMK AO2 SLP172 P0000 T10221067
KDKK 111228Z AUTO 32007KT 9SM -SN BKN026 OVC032 M02/M07 A3000 RMK AO2 P0000 T10221067
KDKK 111153Z AUTO 31007KT 9SM -SN SCT028 BKN034 OVC041 M02/M07 A3000 RMK AO2 SLP166 P0000 60000 70002 T10171072 11006 21028 51021
KDKK 111142Z AUTO 31008KT 9SM -SN SCT026 BKN031 OVC042 M02/M07 A2999 RMK AO2 P0000 T10171067
KDKK 111120Z AUTO 33009KT 9SM -SN SCT021 BKN027 OVC034 M02/M06 A2999 RMK AO2 P0000 T10171061
KDKK 111053Z AUTO 32009KT 9SM -SN FEW024 SCT033 OVC047 M02/M06 A2998 RMK AO2 SLP159 P0000 T10171061
KDKK 111027Z AUTO 31009KT 9SM -SN SCT024 OVC034 M02/M06 A2997 RMK AO2 P0000 T10171061
KDKK 110953Z AUTO 32012KT 9SM -SN SCT022 BKN026 OVC035 M02/M06 A2996 RMK AO2 SLP153 P0000 T10171056
KDKK 110853Z AUTO 30013G19KT 9SM -SN BKN018 OVC026 M01/M04 A2993 RMK AO2 SLP145 P0000 60000 T10111044 51011
KDKK 110753Z AUTO 27008KT 9SM -SN FEW013 BKN021 OVC030 M01/M04 A2993 RMK AO2 SLP142 P0000 T10111044
KDKK 110653Z AUTO 21005KT 7SM -SN FEW010 BKN020 OVC027 M02/M03 A2991 RMK AO2 SLP137 P0000 T10221033
KDKK 110639Z AUTO 23007KT 3SM -SN BR FEW010 BKN017 OVC023 M02/M03 A2991 RMK AO2 P0000 T10221033
KDKK 110635Z AUTO 21010KT 1 3/4SM -SN BR SCT010 BKN017 OVC023 M02/M03 A2990 RMK AO2 P0000 T10221033
KDKK 110620Z AUTO 21009KT 1 3/4SM -SN BR BKN012 OVC019 M03/M03 A2990 RMK AO2 P0000 T10281033
KDKK 110553Z AUTO 22010KT 5SM -SN BR BKN010 OVC018 M03/M03 A2990 RMK AO2 SLP133 P0000 60001 T10281033 11017 21033 51001
KDKK 110538Z AUTO 21011KT 4SM -SN BR SCT008 BKN013 OVC020 M03/M04 A2990 RMK AO2 P0000 T10281039
KDKK 110531Z AUTO 21012KT 4SM -SN BR BKN008 OVC013 M03/M04 A2990 RMK AO2 P0000 T10281039
KDKK 110526Z AUTO 22012KT 2SM -SN BR SCT006 BKN010 OVC016 M03/M04 A2990 RMK AO2 P0000 T10281039
KDKK 110523Z AUTO 22013KT 1 1/4SM -SN BR BKN006 OVC014 M03/M04 A2990 RMK AO2 P0000 T10281039
KDKK 110514Z AUTO 21011KT 1/2SM SN FZFG BKN004 OVC017 M03/M04 A2990 RMK AO2 P0000 T10281039
KDKK 110505Z AUTO 22010G19KT 1/4SM +SN FZFG VV003 M03/M04 A2990 RMK AO2 P0000 T10281039
KDKK 110453Z AUTO 22011KT 1/4SM +SN FZFG VV005 M03/M04 A2990 RMK AO2 SLP134 P0001 T10281039 400001028
KDKK 110450Z AUTO 23011KT 1/4SM +SN FZFG VV006 M03/M04 A2990 RMK AO2 P0000
KDKK 110438Z AUTO 23013KT 3/4SM -SN BR BKN012 OVC021 M03/M04 A2991 RMK AO2 P0000 T10281044
KDKK 110428Z AUTO 23010KT 1 3/4SM -SN BR BKN014 OVC022 M03/M05 A2990 RMK AO2 P0000 T10281050
KDKK 110425Z AUTO 23009KT 3SM -SN OVC018 M02/M05 A2990 RMK AO2 P0000 T10221050
KDKK 110417Z AUTO 23009KT 2 1/2SM -SN OVC021 M03/M06 A2990 RMK AO2 P0000 T10281056
KDKK 110353Z AUTO 22010KT 3SM -SN BKN024 OVC032 M02/M06 A2990 RMK AO2 SLP132 P0000 T10221061
KDKK 110349Z AUTO 22010KT 4SM -SN BKN024 OVC032 M02/M06 A2990 RMK AO2 P0000
KDKK 110253Z AUTO 22015G20KT 9SM -SN OVC042 M02/M07 A2990 RMK AO2 SLP134 P0000 60000 T10221067 55000
KDKK 110153Z AUTO 22016G23KT 8SM -SN OVC045 M02/M07 A2990 RMK AO2 SLP133 P0000 T10221072
KDKK 110114Z AUTO 22014KT 9SM -SN OVC031 M02/M08 A2990 RMK AO2 P0000 T10221078
KDKK 110100Z AUTO 23013G25KT 5SM -SN OVC029 M02/M08 A2990 RMK AO2 P0000 T10221078
KDKK 110053Z AUTO 23020G25KT 6SM -SN OVC031 M02/M08 A2990 RMK AO2 SLP133 P0000 T10221078
KDKK 102353Z AUTO 22014KT 7SM -SN OVC035 M02/M08 A2990 RMK AO2 SLP134 P0000 60001 T10221078 11006 21022 51012
KDKK 102253Z AUTO 22012KT 8SM -SN OVC033 M02/M07 A2990 RMK AO2 SLP133 P0000 T10221067
KDKK 102241Z AUTO 22012KT 8SM -SN OVC031 M02/M07 A2990 RMK AO2 P0000 T10171072
KDKK 102153Z AUTO 22013KT 6SM -SN OVC026 M02/M06 A2988 RMK AO2 SLP126 P0000 T10171061
KDKK 102105Z AUTO 23017G21KT 3SM -SN OVC024 M02/M06 A2987 RMK AO2 P0000 T10171056
KDKK 102100Z AUTO 22015KT 1 3/4SM -SN OVC024 M02/M06 A2987 RMK AO2 P0000 T10221056
KDKK 102053Z AUTO 22014KT 2SM -SN OVC024 M02/M05 A2987 RMK AO2 SLP122 P0001 60001 T10221050 51008
KDKK 102050Z AUTO 22013KT 2SM -SN OVC024 M02/M05 A2986 RMK AO2 P0001
KDKK 102025Z AUTO 22014G24KT 1 1/4SM -SN FEW017 OVC025 M02/M05 A2986 RMK AO2 P0001 T10221050
KDKK 102008Z AUTO 23013G24KT 3/4SM -SN BKN017 OVC027 M02/M05 A2986 RMK AO2 P0000 T10221050
KDKK 101953Z AUTO 22017G24KT 1SM -SN BKN023 OVC030 M02/M06 A2986 RMK AO2 PK WND 21029/1940 LTG DSNT NE SLP118 P0000 T10221056
KDKK 101942Z AUTO 22022G29KT 3/4SM -SN BKN023 OVC030 M02/M06 A2986 RMK AO2 PK WND 21029/1940 LTG DSNT NE P0000 T10171056
KDKK 101934Z AUTO 23022G27KT 1 3/4SM -SN BKN025 OVC034 M02/M06 A2985 RMK AO2 PK WND 23029/1901 LTG DSNT NE P0000 T10171056
KDKK 101925Z AUTO 23013G25KT 3SM -SN BKN027 OVC034 M01/M06 A2985 RMK AO2 PK WND 23029/1901 P0000 T10111056
KDKK 101915Z AUTO 23019G28KT 2 1/2SM -SN BKN032 OVC039 M01/M06 A2985 RMK AO2 PK WND 23029/1901 VIS 1 3/4V3 LTG DSNT NE P0000 T10111061
KDKK 101853Z AUTO 24020G30KT 5SM -SN FEW029 BKN037 OVC048 M01/M06 A2984 RMK AO2 PK WND 22032/1817 LTG DSNT NE SNB20 SLP114 P0000 T10111061
KDKK 101817Z AUTO 22019G32KT 5SM HZ FEW029 OVC055 M01/M06 A2984 RMK AO2 PK WND 22032/1817 T10111056
KDKK 101809Z AUTO 23019G27KT 6SM HZ BKN029 OVC055 M01/M06 A2985 RMK AO2 PK WND 22027/1808 T10111056
KDKK 101753Z AUTO 23018G26KT 8SM SCT029 BKN055 OVC070 M01/M06 A2985 RMK AO2 PK WND 21030/1729 SNE48 SLP117 P0000 60000 T10111056 10000 21022 58009
KDKK 101708Z AUTO 22018G29KT 4SM -SN BKN020 OVC027 M01/M05 A2986 RMK AO2 PK WND 23029/1706 P0000 T10111050
KDKK 101700Z AUTO 23014G21KT 2SM -SN OVC022 M01/M04 A2986 RMK AO2 VIS 1V5 P0000 T10111044
KDKK 101653Z AUTO 22014G25KT 1SM -SN BR BKN018 OVC024 M02/M04 A2987 RMK AO2 SLP122 P0000 T10171039
KDKK 101648Z AUTO 23016G25KT 1SM -SN BR BKN018 OVC026 M02/M04 A2987 RMK AO2 P0000
KDKK 101638Z AUTO 22012KT 1 3/4SM -SN BR BKN014 BKN025 OVC031 M02/M03 A2987 RMK AO2 P0000 T10171033
KDKK 101631Z AUTO 21013KT 1SM -SN BR FEW008 BKN012 OVC027 M02/M03 A2987 RMK AO2 P0000 T10171028
KDKK 101615Z AUTO 23015G21KT 1/4SM +SN FZFG BKN009 BKN026 OVC034 M02/M04 A2988 RMK AO2 P0000 T10171039
KDKK 101611Z AUTO 23014G21KT 3/4SM -SN SCT015 BKN026 OVC034 M01/M04 A2988 RMK AO2 P0000 T10111039
KDKK 101609Z AUTO 24012G20KT 210V270 2SM -SN SCT020 BKN028 OVC034 M01/M04 A2988 RMK AO2 P0000 T10061039
KDKK 101553Z AUTO 25012G23KT 5SM -SN SCT028 BKN047 OVC065 M01/M04 A2988 RMK AO2 SNE1459B46 SLP126 P0000 T10061044
KDKK 101453Z AUTO 26014G23KT 6SM -SN BKN032 OVC060 M01/M06 A2989 RMK AO2 PK WND 29026/1358 SNB33 SLP128 P0000 60000 T10061061 50009
KDKK 101445Z AUTO 25017G22KT 3SM -SN BKN034 BKN046 OVC060 M01/M07 A2989 RMK AO2 PK WND 29026/1358 SNB33 P0000 T10111067
KDKK 101437Z AUTO 26014G25KT 1 3/4SM -SN SCT029 BKN046 OVC060 M02/M06 A2989 RMK AO2 PK WND 29026/1358 SNB33 P0000 T10171061
KDKK 101353Z AUTO 27015G25KT 10SM BKN042 OVC050 M01/M08 A2989 RMK AO2 PK WND 29031/1315 SLP131 T10111078
KDKK 101253Z AUTO 27012G28KT 8SM SCT033 OVC044 M02/M08 A2988 RMK AO2 PK WND 27028/1250 SNB1154E05 SLP128 P0000 T10171078
KDKK 101221Z AUTO 28017G25KT 10SM FEW024 BKN033 OVC049 M01/M07 A2987 RMK AO2 SNB1154E05 P0000 T10111067
KDKK 101153Z AUTO 29013G21KT 9SM BKN023 OVC030 M01/M05 A2986 RMK AO2 SNB39E52 SLP119 P0000 60000 T10111050 10000 21022 51022
KDKK 101103Z AUTO 30013G19KT 10SM BKN025 BKN032 OVC075 M01/M06 A2985 RMK AO2 T10111056
KDKK 101053Z AUTO 30008KT 10SM SCT025 SCT029 OVC075 M01/M06 A2985 RMK AO2 SNE0956 SLP115 P0000 T10111056
KDKK 101024Z AUTO 31009G21KT 10SM SCT023 BKN032 OVC065 M01/M06 A2983 RMK AO2 SNE0956 P0000 T10111056
KDKK 100953Z AUTO 32019G25KT 6SM -SN BKN017 OVC022 M01/M04 A2982 RMK AO2 PK WND 31027/0941 SNB44 SLP105 P0000 T10061044
KDKK 100932Z AUTO 29014G21KT 10SM FEW017 BKN022 OVC060 00/M03 A2980 RMK AO2 T00001033
KDKK 100853Z AUTO 29009KT 260V330 10SM SCT026 BKN031 OVC060 00/M04 A2979 RMK AO2 SLP095 60000 T00001044 51003
KDKK 100851Z AUTO 27008G16KT 10SM SCT026 BKN031 OVC060 00/M04 A2979 RMK AO2
KDKK 100841Z AUTO 27010G17KT 10SM BKN025 BKN035 OVC045 00/M04 A2979 RMK AO2 T00001044
KDKK 100753Z AUTO 28013G18KT 10SM SCT026 BKN035 OVC060 00/M05 A2979 RMK AO2 SNE01 SLP095 P0000 T00001050
KDKK 100653Z AUTO VRB05KT 7SM -SN SCT017 OVC022 M02/M03 A2978 RMK AO2 SLP093 P0000 T10171033
KDKK 100609Z AUTO 22011KT 3SM -SN FEW013 OVC022 M02/M05 A2978 RMK AO2 P0000 T10221050
KDKK 100557Z AUTO 23013G20KT 1 3/4SM -SN SCT015 BKN022 OVC034 M02/M06 A2978 RMK AO2 P0000 T10171056
KDKK 100553Z AUTO 22011G20KT 3SM -SN BKN022 OVC034 M02/M06 A2978 RMK AO2 SLP092 P0000 60000 T10171056 10000 21017 55000
KDKK 100453Z AUTO 22011KT 9SM -SN BKN026 BKN032 OVC042 M02/M07 A2978 RMK AO2 SNB29 SLP092 P0000 T10171067 400111056
KDKK 100353Z AUTO 21008KT 10SM OVC029 M02/M07 A2978 RMK AO2 SNE09 SLP094 P0000 T10171067
KDKK 100349Z AUTO 20008KT 10SM OVC029 M02/M07 A2978 RMK AO2 SNE09 P0000